Time;durP1;ratioP1;P1;durP2;ratioP2;P2;SDS_P1;SDS_P2;PMS_P1;PMS_P2;Temp;Humidity;BMP_temperature;BMP_pressure;BME280_temperature;BME280_humidity;BME280_pressure;Samples;Min_cycle;Max_cycle;Signal;HPM_P1;HPM_P2
2023/10/19 00:00:36;;;;;;;21.95;12.23;;;;;;;;;;5091048;28;20023;-54
2023/10/19 00:03:06;;;;;;;20.83;11.45;;;;;;;;;;5091210;28;20043;-55
2023/10/19 00:05:32;;;;;;;21.10;11.40;;;;;;;;;;5091576;28;20024;-55
2023/10/19 00:07:59;;;;;;;25.33;12.45;;;;;;;;;;5091090;28;20103;-55
2023/10/19 00:10:29;;;;;;;20.90;11.80;;;;;;;;;;5089601;28;20024;-57
2023/10/19 00:13:08;;;;;;;20.48;11.38;;;;;;;;;;5091049;28;20024;-56
2023/10/19 00:15:37;;;;;;;21.13;11.80;;;;;;;;;;5089949;28;20038;-55
2023/10/19 00:23:13;;;;;;;21.15;12.07;;;;;;;;;;5091018;28;19939;-55
2023/10/19 00:25:41;;;;;;;23.10;12.57;;;;;;;;;;5090791;28;20020;-57
2023/10/19 00:28:07;;;;;;;20.73;12.15;;;;;;;;;;5089427;28;20028;-56
2023/10/19 00:30:35;;;;;;;23.83;13.18;;;;;;;;;;5090416;28;20059;-54
2023/10/19 00:33:03;;;;;;;21.92;12.55;;;;;;;;;;5089337;28;20378;-57
2023/10/19 00:35:34;;;;;;;20.70;11.85;;;;;;;;;;5090534;28;20454;-56
2023/10/19 00:40:52;;;;;;;20.88;12.07;;;;;;;;;;5090650;28;20077;-53
2023/10/19 00:43:37;;;;;;;20.20;12.05;;;;;;;;;;5090942;28;20016;-54
2023/10/19 00:46:20;;;;;;;20.58;12.30;;;;;;;;;;5089435;28;20108;-56
2023/10/19 00:48:49;;;;;;;22.27;12.98;;;;;;;;;;5090545;28;20112;-57
2023/10/19 00:53:59;;;;;;;21.33;12.32;;;;;;;;;;5090262;28;20028;-57
2023/10/19 00:56:27;;;;;;;20.52;12.35;;;;;;;;;;5090189;28;20035;-57
2023/10/19 00:59:00;;;;;;;22.00;13.52;;;;;;;;;;5088968;28;20089;-53
2023/10/19 01:01:28;;;;;;;22.90;12.73;;;;;;;;;;5090369;28;20454;-54
2023/10/19 01:03:56;;;;;;;;;;;;;;;;;;5089493;28;20024;-54
2023/10/19 01:06:23;;;;;;;22.57;16.53;;;;;;;;;;5090529;28;19904;-55
2023/10/19 01:08:51;;;;;;;22.58;16.15;;;;;;;;;;5090516;28;20028;-58
2023/10/19 01:11:21;;;;;;;24.70;16.88;;;;;;;;;;5090151;28;20048;-55
2023/10/19 01:13:48;;;;;;;22.70;17.85;;;;;;;;;;5090165;28;20035;-51
2023/10/19 01:16:23;;;;;;;24.02;17.77;;;;;;;;;;5090219;28;20031;-57
2023/10/19 01:18:54;;;;;;;23.58;17.63;;;;;;;;;;5090252;28;20027;-55
2023/10/19 01:21:36;;;;;;;25.08;17.80;;;;;;;;;;5089936;28;20020;-53
2023/10/19 01:24:06;;;;;;;24.02;18.20;;;;;;;;;;5088833;28;20165;-57
2023/10/19 01:26:37;;;;;;;23.48;16.90;;;;;;;;;;5090055;28;20020;-56
2023/10/19 01:29:13;;;;;;;24.00;18.17;;;;;;;;;;5090035;28;20493;-54
2023/10/19 01:31:51;;;;;;;24.58;18.20;;;;;;;;;;5090599;28;20034;-53
2023/10/19 01:34:19;;;;;;;24.60;18.08;;;;;;;;;;5094008;28;20032;-55
2023/10/19 01:36:49;;;;;;;25.75;18.20;;;;;;;;;;5092547;28;20040;-56
2023/10/19 01:39:18;;;;;;;24.65;18.65;;;;;;;;;;5094154;28;20469;-54
2023/10/19 01:41:44;;;;;;;27.80;18.70;;;;;;;;;;5093006;28;20048;-54
2023/10/19 01:44:13;;;;;;;23.83;18.00;;;;;;;;;;5094148;28;20432;-56
2023/10/19 01:46:39;;;;;;;24.38;17.95;;;;;;;;;;5094213;28;20481;-56
2023/10/19 01:49:08;;;;;;;24.30;18.67;;;;;;;;;;5093638;28;20032;-56
2023/10/19 01:51:38;;;;;;;;;;;;;;;;;;5092714;28;20478;-56
2023/10/19 01:54:05;;;;;;;23.05;17.58;;;;;;;;;;5093437;28;19910;-53
2023/10/19 01:56:33;;;;;;;25.02;17.50;;;;;;;;;;5093804;28;20431;-54
2023/10/19 01:58:59;;;;;;;23.20;18.27;;;;;;;;;;5093519;28;20047;-53
2023/10/19 02:01:28;;;;;;;24.52;17.77;;;;;;;;;;5093583;28;20497;-58
2023/10/19 02:04:03;;;;;;;23.92;17.63;;;;;;;;;;5093549;28;20213;-57
2023/10/19 02:09:00;;;;;;;25.88;19.40;;;;;;;;;;5093538;28;20024;-53
2023/10/19 02:11:27;;;;;;;25.48;19.63;;;;;;;;;;5093398;28;20028;-53
2023/10/19 02:13:55;;;;;;;25.40;18.90;;;;;;;;;;5091639;28;20042;-53
2023/10/19 02:16:22;;;;;;;23.58;18.77;;;;;;;;;;5091994;28;20119;-56
2023/10/19 02:18:49;;;;;;;23.45;18.63;;;;;;;;;;5093136;28;20043;-54
2023/10/19 02:21:21;;;;;;;27.50;20.42;;;;;;;;;;5092747;28;20073;-55
2023/10/19 02:23:50;;;;;;;25.02;19.20;;;;;;;;;;5093144;28;20101;-55
2023/10/19 02:26:16;;;;;;;;;;;;;;;;;;5093360;28;20099;-56
2023/10/19 02:28:43;;;;;;;26.02;19.05;;;;;;;;;;5092865;28;20581;-58
2023/10/19 02:31:18;;;;;;;29.00;20.52;;;;;;;;;;5092718;28;20016;-52
2023/10/19 02:33:51;;;;;;;24.38;19.88;;;;;;;;;;5092792;28;20031;-54
2023/10/19 02:36:19;;;;;;;26.90;19.85;;;;;;;;;;5092649;28;20137;-57
2023/10/19 02:38:48;;;;;;;25.30;19.35;;;;;;;;;;5092594;28;20105;-52
2023/10/19 02:41:17;;;;;;;27.10;20.80;;;;;;;;;;5092426;28;20099;-55
2023/10/19 02:43:50;;;;;;;28.38;20.70;;;;;;;;;;5091227;28;20035;-53
2023/10/19 02:46:17;;;;;;;28.63;20.73;;;;;;;;;;5092572;28;20020;-54
2023/10/19 02:48:50;;;;;;;27.83;20.35;;;;;;;;;;5092392;28;20027;-52
2023/10/19 02:51:19;;;;;;;30.02;22.02;;;;;;;;;;5092149;28;20035;-52
2023/10/19 02:53:45;;;;;;;28.55;20.02;;;;;;;;;;5092269;28;20034;-56
2023/10/19 02:56:16;;;;;;;29.70;21.38;;;;;;;;;;5091057;28;20532;-53
2023/10/19 02:58:43;;;;;;;27.67;21.00;;;;;;;;;;5092347;28;20023;-52
2023/10/19 03:01:14;;;;;;;25.35;19.98;;;;;;;;;;5092209;28;20451;-52
2023/10/19 03:03:43;;;;;;;28.08;21.98;;;;;;;;;;5092313;28;20036;-51
2023/10/19 03:06:09;;;;;;;27.60;21.92;;;;;;;;;;5090900;28;20024;-53
2023/10/19 03:08:35;;;;;;;29.17;21.73;;;;;;;;;;5091998;28;20436;-56
2023/10/19 03:11:05;;;;;;;27.98;20.90;;;;;;;;;;5091783;28;20053;-53
2023/10/19 03:13:34;;;;;;;26.65;20.55;;;;;;;;;;5091752;28;20043;-57
2023/10/19 03:16:00;;;;;;;26.50;20.67;;;;;;;;;;5091727;28;20478;-53
2023/10/19 03:18:28;;;;;;;31.02;20.75;;;;;;;;;;5091782;28;20086;-54
2023/10/19 03:20:54;;;;;;;28.80;21.13;;;;;;;;;;5091671;28;20016;-55
2023/10/19 03:23:20;;;;;;;25.42;19.90;;;;;;;;;;5091658;28;20028;-55
2023/10/19 03:25:58;;;;;;;27.52;20.65;;;;;;;;;;5091800;28;20035;-53
2023/10/19 03:28:26;;;;;;;27.05;20.20;;;;;;;;;;5091692;28;20024;-51
2023/10/19 03:30:55;;;;;;;26.83;20.90;;;;;;;;;;5091475;28;20584;-52
2023/10/19 03:33:26;;;;;;;26.40;21.50;;;;;;;;;;5091450;28;20027;-54
2023/10/19 03:35:53;;;;;;;29.17;21.05;;;;;;;;;;5091304;28;20020;-55
2023/10/19 03:38:22;;;;;;;28.65;20.40;;;;;;;;;;5091069;28;20035;-55
2023/10/19 03:40:59;;;;;;;;;;;;;;;;;;5091804;28;20647;-55
2023/10/19 03:43:27;;;;;;;25.30;20.17;;;;;;;;;;5091102;28;19908;-54
2023/10/19 03:45:53;;;;;;;28.98;20.80;;;;;;;;;;5091314;28;20041;-53
2023/10/19 03:48:26;;;;;;;27.90;20.65;;;;;;;;;;5090053;28;20481;-53
2023/10/19 03:50:53;;;;;;;26.33;19.23;;;;;;;;;;5091079;28;20485;-54
2023/10/19 03:53:21;;;;;;;25.70;19.80;;;;;;;;;;5091245;28;20023;-53
2023/10/19 03:55:47;;;;;;;27.02;21.05;;;;;;;;;;5090741;28;20028;-53
2023/10/19 03:58:13;;;;;;;29.85;22.27;;;;;;;;;;5091576;28;20023;-53
2023/10/19 04:00:39;;;;;;;27.48;21.30;;;;;;;;;;5091632;28;20055;-54
2023/10/19 04:03:05;;;;;;;27.10;21.40;;;;;;;;;;5091347;28;20323;-51
2023/10/19 04:05:34;;;;;;;26.98;21.10;;;;;;;;;;5091014;28;20024;-52
2023/10/19 04:08:01;;;;;;;27.23;21.15;;;;;;;;;;5091081;28;20024;-56
2023/10/19 04:13:02;;;;;;;27.35;20.92;;;;;;;;;;5090726;28;20036;-52
2023/10/19 04:15:33;;;;;;;27.55;21.15;;;;;;;;;;5089426;28;20031;-55
2023/10/19 04:18:00;;;;;;;25.50;21.23;;;;;;;;;;5090782;28;20028;-56
2023/10/19 04:22:56;;;;;;;24.95;20.70;;;;;;;;;;5090655;28;20020;-53
2023/10/19 04:25:25;;;;;;;25.63;20.90;;;;;;;;;;5090850;28;20020;-57
2023/10/19 04:27:51;;;;;;;29.95;21.08;;;;;;;;;;5090881;28;20020;-54
2023/10/19 04:30:27;;;;;;;26.20;20.77;;;;;;;;;;5090680;28;20499;-57
2023/10/19 04:32:55;;;;;;;26.30;20.33;;;;;;;;;;5090603;28;20030;-55
2023/10/19 04:35:21;;;;;;;;;;;;;;;;;;5091008;28;20016;-56
2023/10/19 04:37:51;;;;;;;27.75;21.15;;;;;;;;;;5089398;28;19910;-56
2023/10/19 04:40:18;;;;;;;28.90;21.75;;;;;;;;;;5090279;28;20052;-57
2023/10/19 04:42:44;;;;;;;27.13;21.00;;;;;;;;;;5089012;28;20038;-52
2023/10/19 04:45:11;;;;;;;29.08;20.20;;;;;;;;;;5090604;28;20020;-54
2023/10/19 04:47:37;;;;;;;26.17;19.98;;;;;;;;;;5089217;28;20030;-54
2023/10/19 04:50:04;;;;;;;26.25;20.25;;;;;;;;;;5090057;28;20028;-55
2023/10/19 04:52:30;;;;;;;25.88;20.80;;;;;;;;;;5089108;28;20024;-57
2023/10/19 04:54:58;;;;;;;31.15;20.13;;;;;;;;;;5089032;28;20073;-57
2023/10/19 04:57:25;;;;;;;26.53;19.87;;;;;;;;;;5090198;28;20024;-55
2023/10/19 04:59:51;;;;;;;27.60;19.73;;;;;;;;;;5090053;28;20031;-54
2023/10/19 05:02:17;;;;;;;26.92;20.65;;;;;;;;;;5090078;28;20016;-55
2023/10/19 05:04:45;;;;;;;26.75;20.63;;;;;;;;;;5089986;28;20069;-54
2023/10/19 05:07:17;;;;;;;27.27;20.52;;;;;;;;;;5091402;28;20024;-57
2023/10/19 05:09:43;;;;;;;31.77;21.58;;;;;;;;;;5094041;28;20020;-54
2023/10/19 05:12:09;;;;;;;27.33;19.88;;;;;;;;;;5093245;28;20032;-53
2023/10/19 05:14:39;;;;;;;26.17;19.73;;;;;;;;;;5103578;22;20072;-61
2023/10/19 05:17:09;;;;;;;26.70;18.63;;;;;;;;;;5073071;28;20036;-60
2023/10/19 05:19:38;;;;;;;25.65;20.20;;;;;;;;;;5071499;28;20044;-59
2023/10/19 05:22:05;;;;;;;25.52;20.05;;;;;;;;;;5071461;28;20095;-61
2023/10/19 05:24:32;;;;;;;27.05;19.67;;;;;;;;;;5071607;28;20512;-61
2023/10/19 05:26:58;;;;;;;29.05;20.38;;;;;;;;;;5071730;28;20655;-61
2023/10/19 05:29:24;;;;;;;26.80;19.67;;;;;;;;;;5071019;28;20033;-57
2023/10/19 05:31:53;;;;;;;27.58;19.35;;;;;;;;;;5071413;28;20047;-59
2023/10/19 05:34:23;;;;;;;26.13;19.75;;;;;;;;;;5068770;28;20025;-57
2023/10/19 05:36:49;;;;;;;27.27;20.58;;;;;;;;;;5055011;28;20513;-56
2023/10/19 05:39:16;;;;;;;30.70;20.80;;;;;;;;;;5065493;28;20028;-58
2023/10/19 05:41:42;;;;;;;27.23;19.83;;;;;;;;;;5058974;28;20024;-57
2023/10/19 05:44:08;;;;;;;28.98;20.65;;;;;;;;;;5071133;28;20042;-61
2023/10/19 05:46:34;;;;;;;29.10;19.90;;;;;;;;;;5070919;28;20024;-59
2023/10/19 05:49:03;;;;;;;29.00;20.52;;;;;;;;;;5071221;28;20356;-60
2023/10/19 05:51:29;;;;;;;28.15;20.65;;;;;;;;;;5069693;28;20173;-61
2023/10/19 05:54:01;;;;;;;25.33;20.38;;;;;;;;;;5071577;28;20035;-59
2023/10/19 05:56:27;;;;;;;27.63;20.27;;;;;;;;;;5071190;28;20082;-59
2023/10/19 05:58:53;;;;;;;27.58;20.85;;;;;;;;;;5070544;28;20021;-59
2023/10/19 06:01:19;;;;;;;28.20;21.25;;;;;;;;;;5070756;28;20639;-59
2023/10/19 06:03:46;;;;;;;26.35;19.75;;;;;;;;;;5070800;28;20029;-59
2023/10/19 06:06:12;;;;;;;26.10;19.85;;;;;;;;;;5071113;28;20104;-55
2023/10/19 06:08:38;;;;;;;27.52;20.33;;;;;;;;;;5070590;28;20035;-55
2023/10/19 06:11:04;;;;;;;29.65;19.88;;;;;;;;;;5070111;28;20020;-56
2023/10/19 06:13:31;;;;;;;26.65;20.02;;;;;;;;;;5070154;28;20524;-54
2023/10/19 06:15:57;;;;;;;25.75;19.60;;;;;;;;;;5070599;28;20392;-54
2023/10/19 06:18:24;;;;;;;31.10;21.02;;;;;;;;;;5069792;28;20102;-59
2023/10/19 06:20:51;;;;;;;28.00;20.77;;;;;;;;;;5068917;28;20021;-59
2023/10/19 06:23:17;;;;;;;28.13;19.80;;;;;;;;;;5070513;28;20032;-54
2023/10/19 06:25:44;;;;;;;24.88;20.08;;;;;;;;;;5070630;28;20069;-59
2023/10/19 06:28:13;;;;;;;24.60;19.17;;;;;;;;;;5069897;28;20486;-57
2023/10/19 06:30:40;;;;;;;25.83;19.73;;;;;;;;;;5068465;28;20035;-57
2023/10/19 06:33:06;;;;;;;25.40;19.85;;;;;;;;;;5068992;28;20581;-58
2023/10/19 06:35:33;;;;;;;24.70;19.65;;;;;;;;;;5068042;28;20529;-55
2023/10/19 06:38:00;;;;;;;25.40;18.90;;;;;;;;;;5063950;28;20086;-57
2023/10/19 06:40:29;;;;;;;25.20;19.42;;;;;;;;;;5055265;28;20023;-62
2023/10/19 06:42:56;;;;;;;25.10;17.48;;;;;;;;;;5055989;28;20166;-58
2023/10/19 06:45:22;;;;;;;24.23;18.80;;;;;;;;;;5064414;28;20107;-57
2023/10/19 06:47:49;;;;;;;27.65;19.00;;;;;;;;;;5067698;28;20086;-59
2023/10/19 06:50:16;;;;;;;26.42;18.13;;;;;;;;;;5052597;28;20383;-58
2023/10/19 06:52:43;;;;;;;28.60;19.45;;;;;;;;;;5049854;28;20379;-61
2023/10/19 06:58:05;;;;;;;24.95;19.15;;;;;;;;;;5046746;28;20025;-59
2023/10/19 07:00:31;;;;;;;23.20;18.00;;;;;;;;;;5069606;28;20081;-59
2023/10/19 07:03:00;;;;;;;25.10;18.73;;;;;;;;;;5069715;28;20162;-53
2023/10/19 07:05:29;;;;;;;22.50;18.55;;;;;;;;;;5067988;28;20111;-58
2023/10/19 07:07:56;;;;;;;25.25;18.55;;;;;;;;;;5068509;28;20047;-61
2023/10/19 07:10:22;;;;;;;23.45;18.80;;;;;;;;;;5057336;28;20600;-60
2023/10/19 07:12:49;;;;;;;26.05;18.63;;;;;;;;;;5066589;28;20521;-58
2023/10/19 07:15:18;;;;;;;24.00;18.85;;;;;;;;;;5057926;28;20103;-58
2023/10/19 07:17:45;;;;;;;23.73;18.20;;;;;;;;;;5049535;28;20028;-57
2023/10/19 07:22:57;;;;;;;25.30;17.98;;;;;;;;;;5049637;28;20555;-57
2023/10/19 07:25:25;;;;;;;25.60;18.40;;;;;;;;;;5049471;28;20060;-58
2023/10/19 07:27:52;;;;;;;23.70;18.17;;;;;;;;;;5049826;28;20021;-58
2023/10/19 07:30:22;;;;;;;26.08;18.70;;;;;;;;;;5048756;28;20029;-59
2023/10/19 07:32:51;;;;;;;24.33;18.27;;;;;;;;;;5049904;28;20032;-58
2023/10/19 07:35:18;;;;;;;20.48;16.05;;;;;;;;;;5049503;28;20493;-58
2023/10/19 07:37:44;;;;;;;22.27;16.83;;;;;;;;;;5049726;28;20398;-59
2023/10/19 07:40:13;;;;;;;20.65;16.55;;;;;;;;;;5049493;28;20013;-57
2023/10/19 07:42:40;;;;;;;24.40;17.25;;;;;;;;;;5067026;28;20026;-58
2023/10/19 07:45:11;;;;;;;22.20;17.00;;;;;;;;;;5069490;28;20536;-57
2023/10/19 07:47:39;;;;;;;23.25;16.35;;;;;;;;;;5069722;28;20393;-55
2023/10/19 07:50:06;;;;;;;21.67;15.82;;;;;;;;;;5069328;28;20437;-57
2023/10/19 07:52:35;;;;;;;20.08;15.63;;;;;;;;;;5068154;28;20035;-57
2023/10/19 07:55:02;;;;;;;20.50;15.63;;;;;;;;;;5069474;28;20025;-57
2023/10/19 07:57:29;;;;;;;20.48;15.02;;;;;;;;;;5069183;28;20024;-57
2023/10/19 07:59:56;;;;;;;21.33;15.68;;;;;;;;;;5067433;28;20111;-57
2023/10/19 08:02:24;;;;;;;21.20;15.93;;;;;;;;;;5069240;28;20071;-57
2023/10/19 08:04:51;;;;;;;21.35;15.43;;;;;;;;;;5068975;28;20099;-56
2023/10/19 08:07:17;;;;;;;22.42;15.63;;;;;;;;;;5067860;28;20592;-59
2023/10/19 08:09:43;;;;;;;20.38;15.02;;;;;;;;;;5068803;28;20033;-59
2023/10/19 08:12:11;;;;;;;20.05;15.70;;;;;;;;;;5069046;28;20390;-59
2023/10/19 08:14:37;;;;;;;20.40;16.13;;;;;;;;;;5068974;28;20517;-59
2023/10/19 08:17:04;;;;;;;25.75;15.70;;;;;;;;;;5055927;28;20148;-58
2023/10/19 08:19:31;;;;;;;20.58;16.08;;;;;;;;;;5060488;28;20032;-58
2023/10/19 08:21:57;;;;;;;21.15;15.38;;;;;;;;;;5062167;28;20034;-57
2023/10/19 08:24:23;;;;;;;21.55;16.35;;;;;;;;;;5068806;28;20090;-57
2023/10/19 08:26:50;;;;;;;18.85;14.63;;;;;;;;;;5068752;28;20112;-57
2023/10/19 08:29:19;;;;;;;18.45;14.43;;;;;;;;;;5068220;28;20053;-55
2023/10/19 08:31:45;;;;;;;18.65;14.38;;;;;;;;;;5060550;28;20039;-58
2023/10/19 08:34:12;;;;;;;20.90;14.90;;;;;;;;;;5065091;28;20025;-56
2023/10/19 08:36:38;;;;;;;19.45;15.75;;;;;;;;;;5058410;28;20097;-59
2023/10/19 08:39:08;;;;;;;18.38;14.77;;;;;;;;;;5057826;28;20032;-55
2023/10/19 08:41:36;;;;;;;16.95;14.02;;;;;;;;;;5059054;28;20096;-54
2023/10/19 08:44:03;;;;;;;18.95;14.82;;;;;;;;;;5068806;28;20024;-56
2023/10/19 08:46:29;;;;;;;19.95;14.93;;;;;;;;;;5069000;28;20032;-57
2023/10/19 08:48:59;;;;;;;18.05;14.23;;;;;;;;;;5068930;28;20512;-56
2023/10/19 08:51:25;;;;;;;20.92;14.43;;;;;;;;;;5065318;28;20104;-57
2023/10/19 08:53:54;;;;;;;20.42;14.10;;;;;;;;;;5068539;28;20036;-56
2023/10/19 08:56:23;;;;;;;19.00;13.60;;;;;;;;;;5068689;28;20029;-58
2023/10/19 08:58:49;;;;;;;;;;;;;;;;;;5062599;28;20032;-58
2023/10/19 09:01:15;;;;;;;18.05;13.02;;;;;;;;;;5048487;28;19908;-59
2023/10/19 09:03:41;;;;;;;19.38;13.25;;;;;;;;;;5051083;28;20040;-57
2023/10/19 09:06:07;;;;;;;19.90;13.50;;;;;;;;;;5046999;28;20132;-59
2023/10/19 09:08:40;;;;;;;20.17;12.57;;;;;;;;;;5048243;28;20065;-57
2023/10/19 09:11:11;;;;;;;18.05;12.98;;;;;;;;;;5048213;28;20025;-57
2023/10/19 09:13:53;;;;;;;18.58;13.35;;;;;;;;;;5048228;28;20053;-57
2023/10/19 09:16:23;;;;;;;20.42;13.00;;;;;;;;;;5048408;28;20485;-57
2023/10/19 09:18:49;;;;;;;20.23;13.85;;;;;;;;;;5048193;28;20033;-59
2023/10/19 09:21:26;;;;;;;18.10;13.50;;;;;;;;;;5050457;28;20552;-56
2023/10/19 09:24:01;;;;;;;20.20;12.88;;;;;;;;;;5054761;28;20025;-56
2023/10/19 09:26:27;;;;;;;18.02;13.18;;;;;;;;;;5057529;28;20033;-55
2023/10/19 09:28:54;;;;;;;18.58;13.57;;;;;;;;;;5056488;28;20086;-58
2023/10/19 09:31:22;;;;;;;18.83;12.77;;;;;;;;;;5055983;28;20025;-57
2023/10/19 09:33:54;;;;;;;18.10;11.55;;;;;;;;;;5056106;28;20196;-56
2023/10/19 09:36:22;;;;;;;18.30;11.50;;;;;;;;;;5047009;28;20124;-54
2023/10/19 09:38:53;;;;;;;22.17;11.23;;;;;;;;;;5063037;28;20043;-57
2023/10/19 09:41:22;;;;;;;18.50;10.80;;;;;;;;;;5067738;28;20021;-58
2023/10/19 09:43:49;;;;;;;20.80;10.77;;;;;;;;;;5068301;28;20044;-56
2023/10/19 09:46:36;;;;;;;16.67;11.18;;;;;;;;;;5059924;28;20475;-56
2023/10/19 09:49:03;;;;;;;18.42;11.02;;;;;;;;;;5058432;28;20385;-58
2023/10/19 09:51:29;;;;;;;17.73;11.10;;;;;;;;;;5055719;28;20501;-57
2023/10/19 09:54:13;;;;;;;17.40;11.52;;;;;;;;;;5050061;28;20783;-58
2023/10/19 09:56:44;;;;;;;18.38;11.10;;;;;;;;;;5051437;28;20461;-58
2023/10/19 09:59:39;;;;;;;17.20;10.98;;;;;;;;;;5053957;28;20038;-58
2023/10/19 10:02:05;;;;;;;17.13;10.70;;;;;;;;;;5041642;28;20098;-60
2023/10/19 10:04:32;;;;;;;16.55;10.60;;;;;;;;;;5068822;28;20073;-57
2023/10/19 10:06:59;;;;;;;18.17;11.00;;;;;;;;;;5071384;28;20029;-57
2023/10/19 10:09:26;;;;;;;17.45;10.50;;;;;;;;;;5070273;28;20060;-60
2023/10/19 10:11:53;;;;;;;17.90;9.68;;;;;;;;;;5066595;28;20486;-58
2023/10/19 10:14:28;;;;;;;18.88;10.77;;;;;;;;;;5070979;28;20467;-55
2023/10/19 10:17:04;;;;;;;16.25;10.73;;;;;;;;;;5070981;28;20024;-59
2023/10/19 10:19:30;;;;;;;17.70;11.02;;;;;;;;;;5069225;28;20020;-58
2023/10/19 10:22:14;;;;;;;17.80;11.05;;;;;;;;;;5068537;28;20478;-58
2023/10/19 10:24:44;;;;;;;20.27;11.00;;;;;;;;;;5069169;28;20047;-58
2023/10/19 10:27:14;;;;;;;18.08;10.88;;;;;;;;;;5067740;28;20382;-56
2023/10/19 10:30:01;;;;;;;18.00;11.38;;;;;;;;;;5068973;28;20039;-56
2023/10/19 10:32:47;;;;;;;16.83;10.38;;;;;;;;;;5069463;28;20056;-59
2023/10/19 10:35:32;;;;;;;18.02;10.43;;;;;;;;;;5069485;28;20028;-55
2023/10/19 10:37:59;;;;;;;18.70;10.45;;;;;;;;;;5069565;28;20032;-56
2023/10/19 10:40:25;;;;;;;18.60;10.50;;;;;;;;;;5070205;28;20028;-58
2023/10/19 10:43:04;;;;;;;16.58;10.55;;;;;;;;;;5070653;28;20032;-58
2023/10/19 10:45:31;;;;;;;17.08;10.82;;;;;;;;;;5070945;28;20032;-59
2023/10/19 10:47:57;;;;;;;20.55;10.65;;;;;;;;;;5070642;28;20031;-59
2023/10/19 10:50:24;;;;;;;17.45;10.57;;;;;;;;;;5070455;28;20171;-55
2023/10/19 10:52:53;;;;;;;16.30;9.88;;;;;;;;;;5070424;28;20020;-58
2023/10/19 10:55:19;;;;;;;20.52;10.45;;;;;;;;;;5069944;28;20103;-57
2023/10/19 10:57:45;;;;;;;16.90;9.82;;;;;;;;;;5070035;28;20056;-58
2023/10/19 11:00:15;;;;;;;14.88;9.93;;;;;;;;;;5069921;28;20618;-59
2023/10/19 11:02:49;;;;;;;16.73;10.02;;;;;;;;;;5068921;28;20017;-58
2023/10/19 11:05:18;;;;;;;15.38;10.30;;;;;;;;;;5067664;28;20020;-60
2023/10/19 11:08:02;;;;;;;16.85;10.65;;;;;;;;;;5070096;28;20127;-58
2023/10/19 11:10:31;;;;;;;17.30;10.07;;;;;;;;;;5069759;28;20111;-59
2023/10/19 11:13:04;;;;;;;16.67;9.65;;;;;;;;;;5070138;28;20085;-58
2023/10/19 11:15:30;;;;;;;18.05;10.20;;;;;;;;;;5076192;22;20045;-48
2023/10/19 11:17:57;;;;;;;19.30;10.20;;;;;;;;;;5051748;28;20040;-51
2023/10/19 11:20:24;;;;;;;15.95;10.32;;;;;;;;;;5052321;28;20428;-53
2023/10/19 11:22:51;;;;;;;19.77;10.85;;;;;;;;;;5050447;28;20028;-52
2023/10/19 11:25:20;;;;;;;15.77;9.82;;;;;;;;;;5051909;28;20023;-53
2023/10/19 11:27:49;;;;;;;15.65;9.60;;;;;;;;;;5051921;28;20021;-51
2023/10/19 11:30:23;;;;;;;15.80;9.70;;;;;;;;;;5051256;28;20463;-54
2023/10/19 11:32:52;;;;;;;17.67;10.23;;;;;;;;;;5051432;28;20030;-52
2023/10/19 11:35:19;;;;;;;17.52;10.35;;;;;;;;;;5051777;28;20033;-54
2023/10/19 11:37:49;;;;;;;17.80;11.20;;;;;;;;;;5051536;28;20061;-52
2023/10/19 11:40:15;;;;;;;15.43;10.80;;;;;;;;;;5051645;28;20529;-55
2023/10/19 11:42:41;;;;;;;16.95;10.77;;;;;;;;;;5051744;28;20029;-53
2023/10/19 11:45:08;;;;;;;18.85;10.93;;;;;;;;;;5051690;28;20037;-54
2023/10/19 11:47:34;;;;;;;17.42;10.50;;;;;;;;;;5050963;28;20105;-54
2023/10/19 11:50:00;;;;;;;15.93;11.30;;;;;;;;;;5051236;28;20407;-52
2023/10/19 11:52:27;;;;;;;16.33;11.10;;;;;;;;;;5051506;28;20036;-54
2023/10/19 11:54:54;;;;;;;18.63;11.07;;;;;;;;;;5050213;28;20025;-53
2023/10/19 11:57:20;;;;;;;15.63;10.70;;;;;;;;;;5050679;28;20432;-51
2023/10/19 11:59:52;;;;;;;17.25;10.98;;;;;;;;;;5051580;28;20372;-54
2023/10/19 12:02:18;;;;;;;16.73;11.32;;;;;;;;;;5052218;28;20052;-55
2023/10/19 12:04:45;;;;;;;19.73;11.63;;;;;;;;;;5051718;28;20031;-52
2023/10/19 12:07:11;;;;;;;15.80;11.05;;;;;;;;;;5049864;28;20032;-53
2023/10/19 12:09:41;;;;;;;15.77;11.25;;;;;;;;;;5050809;28;20044;-52
2023/10/19 12:12:07;;;;;;;17.77;11.20;;;;;;;;;;5050788;28;20035;-54
2023/10/19 12:14:36;;;;;;;16.27;10.75;;;;;;;;;;5051065;28;20529;-54
2023/10/19 12:17:02;;;;;;;16.30;10.65;;;;;;;;;;5050585;28;20183;-54
2023/10/19 12:19:31;;;;;;;16.40;11.02;;;;;;;;;;5050540;28;20021;-53
2023/10/19 12:21:57;;;;;;;16.58;11.57;;;;;;;;;;5049852;28;20046;-50
2023/10/19 12:24:24;;;;;;;16.38;11.52;;;;;;;;;;5050835;28;20059;-54
2023/10/19 12:26:51;;;;;;;17.27;10.30;;;;;;;;;;5049533;28;20447;-52
2023/10/19 12:29:20;;;;;;;20.05;11.15;;;;;;;;;;5050620;28;20068;-53
2023/10/19 12:31:46;;;;;;;18.95;11.98;;;;;;;;;;5050116;28;20021;-51
2023/10/19 12:34:13;;;;;;;16.25;11.52;;;;;;;;;;5050999;28;20021;-55
2023/10/19 12:36:40;;;;;;;18.75;12.15;;;;;;;;;;5050475;28;20033;-53
2023/10/19 12:39:06;;;;;;;16.85;12.68;;;;;;;;;;5050726;28;20566;-51
2023/10/19 12:41:33;;;;;;;17.80;12.63;;;;;;;;;;5050461;28;20398;-52
2023/10/19 12:44:07;;;;;;;17.60;12.80;;;;;;;;;;5050612;28;20036;-53
2023/10/19 12:46:36;;;;;;;17.48;12.57;;;;;;;;;;5050780;28;20468;-55
2023/10/19 12:49:02;;;;;;;17.08;12.10;;;;;;;;;;5050298;28;20017;-49
2023/10/19 12:51:29;;;;;;;17.42;11.55;;;;;;;;;;5050167;28;20031;-52
2023/10/19 12:53:56;;;;;;;16.27;12.55;;;;;;;;;;5050702;28;20055;-49
2023/10/19 12:56:29;;;;;;;17.85;12.13;;;;;;;;;;5050047;28;20025;-53
2023/10/19 12:58:55;;;;;;;18.33;12.40;;;;;;;;;;5049027;28;20032;-52
2023/10/19 13:01:21;;;;;;;20.42;12.48;;;;;;;;;;5049012;28;20052;-53
2023/10/19 13:03:49;;;;;;;20.50;12.63;;;;;;;;;;5050138;28;20088;-54
2023/10/19 13:06:15;;;;;;;17.52;11.63;;;;;;;;;;5050608;28;20025;-52
2023/10/19 13:08:41;;;;;;;17.05;12.32;;;;;;;;;;5048594;28;20064;-51
2023/10/19 13:11:08;;;;;;;15.45;11.80;;;;;;;;;;5050061;28;20033;-51
2023/10/19 13:13:36;;;;;;;17.67;11.60;;;;;;;;;;5049683;28;20032;-51
2023/10/19 13:16:11;;;;;;;16.10;11.53;;;;;;;;;;5050548;28;20037;-52
2023/10/19 13:18:40;;;;;;;18.27;12.32;;;;;;;;;;5050597;28;20264;-53
2023/10/19 13:21:06;;;;;;;;;;;;;;;;;;5050559;28;20056;-53
2023/10/19 13:23:35;;;;;;;17.70;11.80;;;;;;;;;;5050488;28;19928;-53
2023/10/19 13:28:35;;;;;;;16.67;12.00;;;;;;;;;;5052563;28;20041;-54
2023/10/19 13:31:01;;;;;;;16.48;11.63;;;;;;;;;;5053923;28;20394;-52
2023/10/19 13:33:28;;;;;;;20.00;13.15;;;;;;;;;;5052999;28;20124;-53
2023/10/19 13:35:54;;;;;;;19.20;12.55;;;;;;;;;;5053404;28;20410;-52
2023/10/19 13:38:20;;;;;;;17.05;11.77;;;;;;;;;;5052318;28;20475;-55
2023/10/19 13:40:46;;;;;;;16.92;11.90;;;;;;;;;;5053600;28;20025;-54
2023/10/19 13:43:17;;;;;;;17.38;11.70;;;;;;;;;;5052377;28;20029;-52
2023/10/19 13:45:44;;;;;;;18.05;12.40;;;;;;;;;;5053529;28;20017;-52
2023/10/19 13:48:11;;;;;;;19.35;12.80;;;;;;;;;;5051945;28;20032;-54
2023/10/19 13:50:42;;;;;;;18.48;11.52;;;;;;;;;;5053038;28;20032;-51
2023/10/19 13:53:09;;;;;;;18.30;12.35;;;;;;;;;;5053460;28;20040;-53
2023/10/19 13:55:39;;;;;;;17.95;12.40;;;;;;;;;;5053558;28;20017;-49
2023/10/19 13:58:06;;;;;;;18.98;12.10;;;;;;;;;;5053457;28;20021;-52
2023/10/19 14:00:40;;;;;;;16.67;11.60;;;;;;;;;;5053220;28;20053;-51
2023/10/19 14:03:07;;;;;;;16.42;11.57;;;;;;;;;;5053622;28;20036;-53
2023/10/19 14:05:42;;;;;;;16.95;11.70;;;;;;;;;;5053258;28;20029;-48
2023/10/19 14:08:08;;;;;;;18.77;12.20;;;;;;;;;;5052095;28;20018;-55
2023/10/19 14:10:35;;;;;;;16.73;11.80;;;;;;;;;;5051870;28;20531;-54
2023/10/19 14:13:01;;;;;;;19.40;11.85;;;;;;;;;;5044351;28;20105;-51
2023/10/19 14:15:28;;;;;;;18.98;11.73;;;;;;;;;;5050809;28;20498;-53
2023/10/19 14:17:59;;;;;;;19.33;11.43;;;;;;;;;;5054038;28;20021;-53
2023/10/19 14:20:25;;;;;;;17.60;11.52;;;;;;;;;;5053452;28;20017;-59
2023/10/19 14:22:55;;;;;;;17.52;11.75;;;;;;;;;;5053446;28;20052;-50
2023/10/19 14:25:22;;;;;;;16.00;11.20;;;;;;;;;;5051806;28;20027;-55
2023/10/19 14:27:49;;;;;;;17.93;12.20;;;;;;;;;;5052763;28;20514;-51
2023/10/19 14:30:16;;;;;;;17.65;12.10;;;;;;;;;;5052858;28;20512;-54
2023/10/19 14:32:49;;;;;;;17.05;12.13;;;;;;;;;;5053040;28;20413;-51
2023/10/19 14:35:17;;;;;;;17.38;11.60;;;;;;;;;;5052793;28;20272;-49
2023/10/19 14:37:44;;;;;;;16.57;11.40;;;;;;;;;;5052386;28;20025;-52
2023/10/19 14:40:10;;;;;;;16.98;11.25;;;;;;;;;;5051990;28;20025;-55
2023/10/19 14:42:40;;;;;;;20.67;11.90;;;;;;;;;;5051648;28;20394;-52
2023/10/19 14:45:09;;;;;;;20.67;11.82;;;;;;;;;;5048761;28;20033;-54
2023/10/19 14:47:36;;;;;;;18.65;11.50;;;;;;;;;;5050195;28;20385;-51
2023/10/19 14:50:02;;;;;;;18.58;11.32;;;;;;;;;;5043413;28;20050;-54
2023/10/19 14:52:28;;;;;;;19.70;11.30;;;;;;;;;;5053024;28;20028;-51
2023/10/19 14:54:55;;;;;;;18.23;11.65;;;;;;;;;;5051343;28;20033;-53